Aviation Digital Data Service (ADDS)

Output produced by METARs form (0153 UTC 27 September 2016)
found at http://aviationweather.gov/adds/metars/
 
KLGA 262342Z 2700/2724 17013G20KT P6SM BKN050 
     FM270700 22012G19KT P6SM VCSH SCT020 OVC040 
     FM270900 23011G18KT 3SM -SHRA BR BKN010 OVC025 
     FM271100 26009KT P6SM -SHRA BKN010 OVC020 
     FM271600 28008KT P6SM FEW030 SCT070 
     FM272000 21007KT P6SM SCT070